Conceicao de Macabu, Brazil
Current Conditions -  °F | °C
As of 3:00 PM on Monday 22 Dec 2014 (Local Time) from SBME Reporting Station
Scattered Clouds Scattered Clouds  
Wind Chill: 108°   Ceiling: Unl
Heat Index: 121°   Visibility: 6mi
Dew Point: 73°   Wind: 8mph
Humidity: 34%   Direction: 340°NNW
Pressure: 29.74"   Gusts: NA
Location:  22.09°S, 41.87°W
Report Text: SBME 221700Z 34007KT 9999 FEW025TCU SCT030 42/23 Q1007
Loading
Personal Weather Stations






























Interactive Weather Map New forecast layout! Learn more

10-Day Weather Forecast

Advertisements
Track Severe Weather on mobile